Tabernash, Colorado
Current Conditions -  °F | °C
As of 6:35 PM on Tuesday 25 Nov 2014 (Local Time) from K20V Reporting Station
Light Snow Light Snow  
Wind Chill: 16°   Ceiling: 2000
Heat Index: 28°   Visibility: 4mi
Dew Point: 23°   Wind: 17mph
Humidity: 80%   Direction: 270°W
Pressure: 30.16"   Gusts: 24mph
Location:  39.99°N, 105.84°W
Report Text: K20V 260135Z AUTO 27015G21KT 4SM -SN SCT014 BKN020 OVC027 M02/M05 A3016 RMK AO2
Loading
Personal Weather Stations






























Interactive Weather Map New forecast layout! Learn more

10-Day Weather Forecast

Advertisements
Track Severe Weather on mobile